sensor_id;sensor_type;location;lat;lon;timestamp;P1;durP1;ratioP1;P2;durP2;ratioP2
36283;SDS011;56085;48.910;9.478;2023-08-21T00:01:39;9.32;;;6.07;;
36283;SDS011;56085;48.910;9.478;2023-08-21T00:04:05;8.45;;;6.93;;
36283;SDS011;56085;48.910;9.478;2023-08-21T00:06:30;7.78;;;6.15;;
36283;SDS011;56085;48.910;9.478;2023-08-21T00:08:55;8.63;;;6.50;;
36283;SDS011;56085;48.910;9.478;2023-08-21T00:11:20;10.27;;;6.22;;
36283;SDS011;56085;48.910;9.478;2023-08-21T00:13:46;12.05;;;5.95;;
36283;SDS011;56085;48.910;9.478;2023-08-21T00:16:13;10.40;;;6.53;;
36283;SDS011;56085;48.910;9.478;2023-08-21T00:18:38;9.82;;;6.25;;
36283;SDS011;56085;48.910;9.478;2023-08-21T00:21:04;8.63;;;6.32;;
36283;SDS011;56085;48.910;9.478;2023-08-21T00:23:29;10.68;;;6.78;;
36283;SDS011;56085;48.910;9.478;2023-08-21T00:25:55;7.40;;;6.47;;
36283;SDS011;56085;48.910;9.478;2023-08-21T00:28:20;8.45;;;6.63;;
36283;SDS011;56085;48.910;9.478;2023-08-21T00:30:46;9.50;;;5.77;;
36283;SDS011;56085;48.910;9.478;2023-08-21T00:33:11;11.00;;;7.10;;
36283;SDS011;56085;48.910;9.478;2023-08-21T00:35:36;10.85;;;7.20;;
36283;SDS011;56085;48.910;9.478;2023-08-21T00:38:01;9.18;;;7.22;;
36283;SDS011;56085;48.910;9.478;2023-08-21T00:40:27;10.90;;;7.20;;
36283;SDS011;56085;48.910;9.478;2023-08-21T00:42:52;8.18;;;6.90;;
36283;SDS011;56085;48.910;9.478;2023-08-21T00:45:18;9.95;;;7.20;;
36283;SDS011;56085;48.910;9.478;2023-08-21T00:47:43;9.75;;;7.25;;
36283;SDS011;56085;48.910;9.478;2023-08-21T00:50:09;7.85;;;6.80;;
36283;SDS011;56085;48.910;9.478;2023-08-21T00:52:36;9.35;;;7.18;;
36283;SDS011;56085;48.910;9.478;2023-08-21T00:55:04;9.15;;;6.80;;
36283;SDS011;56085;48.910;9.478;2023-08-21T00:57:30;12.55;;;7.35;;
36283;SDS011;56085;48.910;9.478;2023-08-21T00:59:56;9.40;;;7.00;;
36283;SDS011;56085;48.910;9.478;2023-08-21T01:02:22;8.82;;;6.25;;
36283;SDS011;56085;48.910;9.478;2023-08-21T01:04:47;8.05;;;6.20;;
36283;SDS011;56085;48.910;9.478;2023-08-21T01:07:13;8.07;;;6.00;;
36283;SDS011;56085;48.910;9.478;2023-08-21T01:09:40;9.40;;;6.10;;
36283;SDS011;56085;48.910;9.478;2023-08-21T01:14:59;9.20;;;6.85;;
36283;SDS011;56085;48.910;9.478;2023-08-21T01:17:28;9.93;;;7.15;;
36283;SDS011;56085;48.910;9.478;2023-08-21T01:19:55;11.73;;;7.00;;
36283;SDS011;56085;48.910;9.478;2023-08-21T01:22:25;8.73;;;7.00;;
36283;SDS011;56085;48.910;9.478;2023-08-21T01:25:00;10.93;;;7.45;;
36283;SDS011;56085;48.910;9.478;2023-08-21T01:27:25;7.47;;;6.65;;
36283;SDS011;56085;48.910;9.478;2023-08-21T01:29:50;9.43;;;7.95;;
36283;SDS011;56085;48.910;9.478;2023-08-21T01:34:55;8.15;;;7.15;;
36283;SDS011;56085;48.910;9.478;2023-08-21T01:37:21;9.43;;;7.03;;
36283;SDS011;56085;48.910;9.478;2023-08-21T01:39:47;7.70;;;6.90;;
36283;SDS011;56085;48.910;9.478;2023-08-21T01:42:12;9.75;;;6.60;;
36283;SDS011;56085;48.910;9.478;2023-08-21T01:44:37;8.82;;;7.10;;
36283;SDS011;56085;48.910;9.478;2023-08-21T01:47:03;8.00;;;6.53;;
36283;SDS011;56085;48.910;9.478;2023-08-21T01:49:28;8.43;;;6.07;;
36283;SDS011;56085;48.910;9.478;2023-08-21T01:51:53;11.27;;;7.18;;
36283;SDS011;56085;48.910;9.478;2023-08-21T01:54:19;12.90;;;7.50;;
36283;SDS011;56085;48.910;9.478;2023-08-21T01:56:44;11.02;;;6.68;;
36283;SDS011;56085;48.910;9.478;2023-08-21T01:59:09;8.95;;;6.78;;
36283;SDS011;56085;48.910;9.478;2023-08-21T02:01:35;9.40;;;6.88;;
36283;SDS011;56085;48.910;9.478;2023-08-21T02:04:00;9.02;;;6.85;;
36283;SDS011;56085;48.910;9.478;2023-08-21T02:06:25;7.53;;;6.20;;
36283;SDS011;56085;48.910;9.478;2023-08-21T02:08:50;9.07;;;6.15;;
36283;SDS011;56085;48.910;9.478;2023-08-21T02:11:16;8.05;;;7.20;;
36283;SDS011;56085;48.910;9.478;2023-08-21T02:13:41;7.80;;;6.75;;
36283;SDS011;56085;48.910;9.478;2023-08-21T02:16:06;8.73;;;6.63;;
36283;SDS011;56085;48.910;9.478;2023-08-21T02:18:31;7.35;;;6.20;;
36283;SDS011;56085;48.910;9.478;2023-08-21T02:20:57;10.23;;;7.30;;
36283;SDS011;56085;48.910;9.478;2023-08-21T02:23:22;8.07;;;6.10;;
36283;SDS011;56085;48.910;9.478;2023-08-21T02:25:49;7.90;;;7.10;;
36283;SDS011;56085;48.910;9.478;2023-08-21T02:28:14;10.20;;;6.65;;
36283;SDS011;56085;48.910;9.478;2023-08-21T02:30:40;11.40;;;6.53;;
36283;SDS011;56085;48.910;9.478;2023-08-21T02:33:06;8.32;;;7.03;;
36283;SDS011;56085;48.910;9.478;2023-08-21T02:35:31;12.50;;;7.70;;
36283;SDS011;56085;48.910;9.478;2023-08-21T02:37:56;8.23;;;6.50;;
36283;SDS011;56085;48.910;9.478;2023-08-21T02:40:22;7.82;;;6.28;;
36283;SDS011;56085;48.910;9.478;2023-08-21T02:42:47;8.75;;;6.82;;
36283;SDS011;56085;48.910;9.478;2023-08-21T02:45:12;10.60;;;7.00;;
36283;SDS011;56085;48.910;9.478;2023-08-21T02:47:38;8.90;;;7.10;;
36283;SDS011;56085;48.910;9.478;2023-08-21T02:50:04;11.20;;;7.07;;
36283;SDS011;56085;48.910;9.478;2023-08-21T02:52:31;8.27;;;6.63;;
36283;SDS011;56085;48.910;9.478;2023-08-21T02:54:57;8.68;;;6.68;;
36283;SDS011;56085;48.910;9.478;2023-08-21T02:57:23;8.52;;;6.95;;
36283;SDS011;56085;48.910;9.478;2023-08-21T02:59:49;7.72;;;6.72;;
36283;SDS011;56085;48.910;9.478;2023-08-21T03:02:14;9.68;;;7.47;;
36283;SDS011;56085;48.910;9.478;2023-08-21T03:04:39;7.97;;;6.35;;
36283;SDS011;56085;48.910;9.478;2023-08-21T03:07:05;8.40;;;7.15;;
36283;SDS011;56085;48.910;9.478;2023-08-21T03:09:30;10.05;;;7.93;;
36283;SDS011;56085;48.910;9.478;2023-08-21T03:11:55;10.98;;;7.40;;
36283;SDS011;56085;48.910;9.478;2023-08-21T03:14:21;11.10;;;7.35;;
36283;SDS011;56085;48.910;9.478;2023-08-21T03:16:46;11.05;;;6.97;;
36283;SDS011;56085;48.910;9.478;2023-08-21T03:19:11;7.53;;;6.60;;
36283;SDS011;56085;48.910;9.478;2023-08-21T03:21:37;9.98;;;7.43;;
36283;SDS011;56085;48.910;9.478;2023-08-21T03:24:02;9.05;;;7.00;;
36283;SDS011;56085;48.910;9.478;2023-08-21T03:26:27;10.20;;;7.35;;
36283;SDS011;56085;48.910;9.478;2023-08-21T03:28:53;8.65;;;6.95;;
36283;SDS011;56085;48.910;9.478;2023-08-21T03:31:18;8.98;;;6.60;;
36283;SDS011;56085;48.910;9.478;2023-08-21T03:33:43;10.15;;;6.68;;
36283;SDS011;56085;48.910;9.478;2023-08-21T03:36:09;9.43;;;6.80;;
36283;SDS011;56085;48.910;9.478;2023-08-21T03:38:34;13.50;;;7.00;;
36283;SDS011;56085;48.910;9.478;2023-08-21T03:40:59;9.13;;;7.15;;
36283;SDS011;56085;48.910;9.478;2023-08-21T03:43:25;9.48;;;7.10;;
36283;SDS011;56085;48.910;9.478;2023-08-21T03:45:51;7.95;;;6.20;;
36283;SDS011;56085;48.910;9.478;2023-08-21T03:48:16;8.10;;;6.72;;
36283;SDS011;56085;48.910;9.478;2023-08-21T03:50:41;9.43;;;6.65;;
36283;SDS011;56085;48.910;9.478;2023-08-21T03:53:07;11.70;;;7.32;;
36283;SDS011;56085;48.910;9.478;2023-08-21T03:55:32;9.93;;;7.50;;
36283;SDS011;56085;48.910;9.478;2023-08-21T03:57:58;10.27;;;7.05;;
36283;SDS011;56085;48.910;9.478;2023-08-21T04:00:23;7.38;;;6.28;;
36283;SDS011;56085;48.910;9.478;2023-08-21T04:02:49;8.02;;;6.65;;
36283;SDS011;56085;48.910;9.478;2023-08-21T04:05:14;9.90;;;6.60;;
36283;SDS011;56085;48.910;9.478;2023-08-21T04:07:39;9.82;;;6.93;;
36283;SDS011;56085;48.910;9.478;2023-08-21T04:10:05;8.88;;;6.65;;
36283;SDS011;56085;48.910;9.478;2023-08-21T04:12:31;8.45;;;6.65;;
36283;SDS011;56085;48.910;9.478;2023-08-21T04:14:56;10.63;;;6.57;;
36283;SDS011;56085;48.910;9.478;2023-08-21T04:17:21;8.75;;;7.10;;
36283;SDS011;56085;48.910;9.478;2023-08-21T04:19:47;9.70;;;7.88;;
36283;SDS011;56085;48.910;9.478;2023-08-21T04:22:13;11.52;;;7.30;;
36283;SDS011;56085;48.910;9.478;2023-08-21T04:24:39;9.32;;;7.70;;
36283;SDS011;56085;48.910;9.478;2023-08-21T04:27:05;10.73;;;7.13;;
36283;SDS011;56085;48.910;9.478;2023-08-21T04:29:30;9.95;;;6.90;;
36283;SDS011;56085;48.910;9.478;2023-08-21T04:31:56;11.70;;;7.22;;
36283;SDS011;56085;48.910;9.478;2023-08-21T04:34:21;9.10;;;7.38;;
36283;SDS011;56085;48.910;9.478;2023-08-21T04:36:46;11.52;;;7.25;;
36283;SDS011;56085;48.910;9.478;2023-08-21T04:39:12;8.00;;;6.45;;
36283;SDS011;56085;48.910;9.478;2023-08-21T04:41:37;7.78;;;6.47;;
36283;SDS011;56085;48.910;9.478;2023-08-21T04:44:04;9.43;;;7.32;;
36283;SDS011;56085;48.910;9.478;2023-08-21T04:46:32;8.75;;;6.90;;
36283;SDS011;56085;48.910;9.478;2023-08-21T04:48:58;7.97;;;6.75;;
36283;SDS011;56085;48.910;9.478;2023-08-21T04:51:23;9.98;;;7.25;;
36283;SDS011;56085;48.910;9.478;2023-08-21T04:53:49;7.00;;;6.30;;
36283;SDS011;56085;48.910;9.478;2023-08-21T04:56:14;7.97;;;6.80;;
36283;SDS011;56085;48.910;9.478;2023-08-21T04:58:39;8.50;;;7.32;;
36283;SDS011;56085;48.910;9.478;2023-08-21T05:01:08;9.18;;;6.97;;
36283;SDS011;56085;48.910;9.478;2023-08-21T05:03:33;11.50;;;6.88;;
36283;SDS011;56085;48.910;9.478;2023-08-21T05:05:59;9.95;;;7.10;;
36283;SDS011;56085;48.910;9.478;2023-08-21T05:08:24;9.75;;;7.25;;
36283;SDS011;56085;48.910;9.478;2023-08-21T05:10:57;9.18;;;7.60;;
36283;SDS011;56085;48.910;9.478;2023-08-21T05:13:23;12.23;;;6.82;;
36283;SDS011;56085;48.910;9.478;2023-08-21T05:15:55;8.88;;;7.72;;
36283;SDS011;56085;48.910;9.478;2023-08-21T05:18:22;8.63;;;7.18;;
36283;SDS011;56085;48.910;9.478;2023-08-21T05:20:48;13.45;;;7.63;;
36283;SDS011;56085;48.910;9.478;2023-08-21T05:23:14;10.43;;;8.02;;
36283;SDS011;56085;48.910;9.478;2023-08-21T05:25:39;13.73;;;8.07;;
36283;SDS011;56085;48.910;9.478;2023-08-21T05:28:05;11.68;;;7.20;;
36283;SDS011;56085;48.910;9.478;2023-08-21T05:30:31;9.15;;;7.03;;
36283;SDS011;56085;48.910;9.478;2023-08-21T05:32:56;8.43;;;7.13;;
36283;SDS011;56085;48.910;9.478;2023-08-21T05:35:21;11.70;;;8.35;;
36283;SDS011;56085;48.910;9.478;2023-08-21T05:37:47;13.07;;;7.55;;
36283;SDS011;56085;48.910;9.478;2023-08-21T05:40:12;10.77;;;7.32;;
36283;SDS011;56085;48.910;9.478;2023-08-21T05:42:38;8.25;;;7.22;;
36283;SDS011;56085;48.910;9.478;2023-08-21T05:45:04;13.30;;;8.00;;
36283;SDS011;56085;48.910;9.478;2023-08-21T05:47:30;9.90;;;7.78;;
36283;SDS011;56085;48.910;9.478;2023-08-21T05:49:55;11.50;;;8.25;;
36283;SDS011;56085;48.910;9.478;2023-08-21T05:52:21;10.48;;;8.48;;
36283;SDS011;56085;48.910;9.478;2023-08-21T05:54:47;11.13;;;8.32;;
36283;SDS011;56085;48.910;9.478;2023-08-21T05:57:12;8.30;;;6.82;;
36283;SDS011;56085;48.910;9.478;2023-08-21T05:59:43;11.98;;;7.90;;
36283;SDS011;56085;48.910;9.478;2023-08-21T06:02:12;8.65;;;6.35;;
36283;SDS011;56085;48.910;9.478;2023-08-21T06:04:39;11.10;;;7.60;;
36283;SDS011;56085;48.910;9.478;2023-08-21T06:07:05;9.60;;;7.43;;
36283;SDS011;56085;48.910;9.478;2023-08-21T06:09:31;8.80;;;7.63;;
36283;SDS011;56085;48.910;9.478;2023-08-21T06:11:58;11.10;;;7.88;;
36283;SDS011;56085;48.910;9.478;2023-08-21T06:14:25;10.80;;;7.90;;
36283;SDS011;56085;48.910;9.478;2023-08-21T06:16:54;11.90;;;7.95;;
36283;SDS011;56085;48.910;9.478;2023-08-21T06:19:21;10.48;;;7.90;;
36283;SDS011;56085;48.910;9.478;2023-08-21T06:21:46;12.95;;;8.55;;
36283;SDS011;56085;48.910;9.478;2023-08-21T06:24:11;11.02;;;7.80;;
36283;SDS011;56085;48.910;9.478;2023-08-21T06:26:37;9.90;;;8.18;;
36283;SDS011;56085;48.910;9.478;2023-08-21T06:29:02;12.68;;;8.68;;
36283;SDS011;56085;48.910;9.478;2023-08-21T06:31:27;11.48;;;8.20;;
36283;SDS011;56085;48.910;9.478;2023-08-21T06:33:52;12.30;;;8.73;;
36283;SDS011;56085;48.910;9.478;2023-08-21T06:36:18;10.48;;;8.20;;
36283;SDS011;56085;48.910;9.478;2023-08-21T06:38:43;12.70;;;8.65;;
36283;SDS011;56085;48.910;9.478;2023-08-21T06:41:09;9.75;;;7.85;;
36283;SDS011;56085;48.910;9.478;2023-08-21T06:43:34;9.98;;;8.10;;
36283;SDS011;56085;48.910;9.478;2023-08-21T06:45:59;12.43;;;7.57;;
36283;SDS011;56085;48.910;9.478;2023-08-21T06:48:25;9.73;;;7.82;;
36283;SDS011;56085;48.910;9.478;2023-08-21T06:50:50;8.77;;;7.60;;
36283;SDS011;56085;48.910;9.478;2023-08-21T06:53:15;11.45;;;8.50;;
36283;SDS011;56085;48.910;9.478;2023-08-21T06:55:41;9.18;;;7.82;;
36283;SDS011;56085;48.910;9.478;2023-08-21T06:58:06;11.48;;;8.73;;
36283;SDS011;56085;48.910;9.478;2023-08-21T07:00:31;13.57;;;8.93;;
36283;SDS011;56085;48.910;9.478;2023-08-21T07:02:57;9.90;;;7.40;;
36283;SDS011;56085;48.910;9.478;2023-08-21T07:05:22;11.65;;;7.63;;
36283;SDS011;56085;48.910;9.478;2023-08-21T07:07:47;13.57;;;8.38;;
36283;SDS011;56085;48.910;9.478;2023-08-21T07:10:13;9.57;;;7.90;;
36283;SDS011;56085;48.910;9.478;2023-08-21T07:12:38;15.50;;;10.32;;
36283;SDS011;56085;48.910;9.478;2023-08-21T07:15:03;13.43;;;8.45;;
36283;SDS011;56085;48.910;9.478;2023-08-21T07:17:29;9.35;;;8.38;;
36283;SDS011;56085;48.910;9.478;2023-08-21T07:19:54;10.50;;;8.32;;
36283;SDS011;56085;48.910;9.478;2023-08-21T07:22:20;11.07;;;8.00;;
36283;SDS011;56085;48.910;9.478;2023-08-21T07:24:45;9.32;;;8.10;;
36283;SDS011;56085;48.910;9.478;2023-08-21T07:27:10;12.73;;;8.65;;
36283;SDS011;56085;48.910;9.478;2023-08-21T07:29:36;9.27;;;7.82;;
36283;SDS011;56085;48.910;9.478;2023-08-21T07:32:01;10.90;;;7.28;;
36283;SDS011;56085;48.910;9.478;2023-08-21T07:34:26;8.73;;;7.32;;
36283;SDS011;56085;48.910;9.478;2023-08-21T07:36:52;12.35;;;7.90;;
36283;SDS011;56085;48.910;9.478;2023-08-21T07:39:17;9.25;;;6.95;;
36283;SDS011;56085;48.910;9.478;2023-08-21T07:41:42;10.45;;;7.53;;
36283;SDS011;56085;48.910;9.478;2023-08-21T07:44:08;11.23;;;7.15;;
36283;SDS011;56085;48.910;9.478;2023-08-21T07:46:33;8.43;;;7.20;;
36283;SDS011;56085;48.910;9.478;2023-08-21T07:48:58;10.30;;;7.68;;
36283;SDS011;56085;48.910;9.478;2023-08-21T07:51:24;7.88;;;6.53;;
36283;SDS011;56085;48.910;9.478;2023-08-21T07:53:49;8.38;;;6.90;;
36283;SDS011;56085;48.910;9.478;2023-08-21T07:56:14;10.27;;;7.57;;
36283;SDS011;56085;48.910;9.478;2023-08-21T07:58:39;7.37;;;6.63;;
36283;SDS011;56085;48.910;9.478;2023-08-21T08:01:05;8.18;;;7.05;;
36283;SDS011;56085;48.910;9.478;2023-08-21T08:03:30;10.18;;;6.68;;
36283;SDS011;56085;48.910;9.478;2023-08-21T08:05:56;7.95;;;6.55;;
36283;SDS011;56085;48.910;9.478;2023-08-21T08:08:21;8.55;;;6.68;;
36283;SDS011;56085;48.910;9.478;2023-08-21T08:10:46;8.05;;;7.25;;
36283;SDS011;56085;48.910;9.478;2023-08-21T08:13:12;10.20;;;7.20;;
36283;SDS011;56085;48.910;9.478;2023-08-21T08:15:37;9.63;;;6.63;;
36283;SDS011;56085;48.910;9.478;2023-08-21T08:18:03;9.15;;;6.80;;
36283;SDS011;56085;48.910;9.478;2023-08-21T08:20:28;10.07;;;6.97;;
36283;SDS011;56085;48.910;9.478;2023-08-21T08:22:54;11.80;;;7.53;;
36283;SDS011;56085;48.910;9.478;2023-08-21T08:25:19;8.50;;;7.13;;
36283;SDS011;56085;48.910;9.478;2023-08-21T08:27:45;9.18;;;7.20;;
36283;SDS011;56085;48.910;9.478;2023-08-21T08:30:10;9.73;;;7.35;;
36283;SDS011;56085;48.910;9.478;2023-08-21T08:32:36;9.38;;;6.68;;
36283;SDS011;56085;48.910;9.478;2023-08-21T08:35:01;7.68;;;6.65;;
36283;SDS011;56085;48.910;9.478;2023-08-21T08:37:27;8.48;;;6.57;;
36283;SDS011;56085;48.910;9.478;2023-08-21T08:39:52;11.00;;;7.50;;
36283;SDS011;56085;48.910;9.478;2023-08-21T08:42:17;7.68;;;6.75;;
36283;SDS011;56085;48.910;9.478;2023-08-21T08:44:43;8.68;;;6.38;;
36283;SDS011;56085;48.910;9.478;2023-08-21T08:47:11;8.98;;;6.47;;
36283;SDS011;56085;48.910;9.478;2023-08-21T08:49:37;12.32;;;7.47;;
36283;SDS011;56085;48.910;9.478;2023-08-21T08:52:03;10.48;;;7.05;;
36283;SDS011;56085;48.910;9.478;2023-08-21T08:54:28;7.75;;;6.70;;
36283;SDS011;56085;48.910;9.478;2023-08-21T08:56:54;9.13;;;6.88;;
36283;SDS011;56085;48.910;9.478;2023-08-21T08:59:20;7.97;;;6.47;;
36283;SDS011;56085;48.910;9.478;2023-08-21T09:01:45;7.93;;;6.18;;
36283;SDS011;56085;48.910;9.478;2023-08-21T09:04:10;9.27;;;6.90;;
36283;SDS011;56085;48.910;9.478;2023-08-21T09:06:36;7.82;;;6.35;;
36283;SDS011;56085;48.910;9.478;2023-08-21T09:09:01;7.78;;;6.88;;
36283;SDS011;56085;48.910;9.478;2023-08-21T09:11:27;9.18;;;6.20;;
36283;SDS011;56085;48.910;9.478;2023-08-21T09:13:53;9.32;;;6.75;;
36283;SDS011;56085;48.910;9.478;2023-08-21T09:16:20;8.38;;;6.25;;
36283;SDS011;56085;48.910;9.478;2023-08-21T09:18:46;8.35;;;6.45;;
36283;SDS011;56085;48.910;9.478;2023-08-21T09:21:15;7.75;;;5.90;;
36283;SDS011;56085;48.910;9.478;2023-08-21T09:23:44;9.43;;;6.60;;
36283;SDS011;56085;48.910;9.478;2023-08-21T09:26:11;7.82;;;6.13;;
36283;SDS011;56085;48.910;9.478;2023-08-21T09:28:46;12.02;;;6.05;;
36283;SDS011;56085;48.910;9.478;2023-08-21T09:31:13;8.60;;;6.80;;
36283;SDS011;56085;48.910;9.478;2023-08-21T09:33:38;8.75;;;6.43;;
36283;SDS011;56085;48.910;9.478;2023-08-21T09:36:03;8.75;;;6.32;;
36283;SDS011;56085;48.910;9.478;2023-08-21T09:38:35;9.32;;;6.40;;
36283;SDS011;56085;48.910;9.478;2023-08-21T09:41:03;8.68;;;5.78;;
36283;SDS011;56085;48.910;9.478;2023-08-21T09:43:28;8.60;;;6.65;;
36283;SDS011;56085;48.910;9.478;2023-08-21T09:45:54;8.70;;;6.72;;
36283;SDS011;56085;48.910;9.478;2023-08-21T09:48:26;10.95;;;6.75;;
36283;SDS011;56085;48.910;9.478;2023-08-21T09:50:52;7.03;;;6.15;;
36283;SDS011;56085;48.910;9.478;2023-08-21T09:53:19;7.13;;;6.40;;
36283;SDS011;56085;48.910;9.478;2023-08-21T09:55:46;9.77;;;6.05;;
36283;SDS011;56085;48.910;9.478;2023-08-21T09:58:12;12.18;;;6.28;;
36283;SDS011;56085;48.910;9.478;2023-08-21T10:00:38;7.25;;;6.07;;
36283;SDS011;56085;48.910;9.478;2023-08-21T10:03:06;7.70;;;5.18;;
36283;SDS011;56085;48.910;9.478;2023-08-21T10:05:34;6.15;;;5.25;;
36283;SDS011;56085;48.910;9.478;2023-08-21T10:08:02;11.57;;;5.40;;
36283;SDS011;56085;48.910;9.478;2023-08-21T10:10:33;10.90;;;6.20;;
36283;SDS011;56085;48.910;9.478;2023-08-21T10:13:00;7.75;;;6.63;;
36283;SDS011;56085;48.910;9.478;2023-08-21T10:15:27;8.13;;;6.30;;
36283;SDS011;56085;48.910;9.478;2023-08-21T10:17:54;9.68;;;6.18;;
36283;SDS011;56085;48.910;9.478;2023-08-21T10:20:22;6.47;;;5.82;;
36283;SDS011;56085;48.910;9.478;2023-08-21T10:22:52;6.78;;;5.70;;
36283;SDS011;56085;48.910;9.478;2023-08-21T10:25:22;8.52;;;6.10;;
36283;SDS011;56085;48.910;9.478;2023-08-21T10:27:54;7.97;;;6.30;;
36283;SDS011;56085;48.910;9.478;2023-08-21T10:30:24;8.43;;;6.23;;
36283;SDS011;56085;48.910;9.478;2023-08-21T10:32:52;7.80;;;5.45;;
36283;SDS011;56085;48.910;9.478;2023-08-21T10:35:20;8.07;;;6.05;;
36283;SDS011;56085;48.910;9.478;2023-08-21T10:40:35;10.52;;;6.13;;
36283;SDS011;56085;48.910;9.478;2023-08-21T10:43:02;9.30;;;6.00;;
36283;SDS011;56085;48.910;9.478;2023-08-21T10:45:28;9.00;;;5.82;;
36283;SDS011;56085;48.910;9.478;2023-08-21T10:47:56;6.18;;;4.68;;
36283;SDS011;56085;48.910;9.478;2023-08-21T10:50:24;7.45;;;5.45;;
36283;SDS011;56085;48.910;9.478;2023-08-21T10:52:51;6.85;;;5.13;;
36283;SDS011;56085;48.910;9.478;2023-08-21T10:55:17;8.75;;;5.13;;
36283;SDS011;56085;48.910;9.478;2023-08-21T10:57:45;6.53;;;4.88;;
36283;SDS011;56085;48.910;9.478;2023-08-21T11:00:12;7.32;;;4.55;;
36283;SDS011;56085;48.910;9.478;2023-08-21T11:02:40;10.98;;;5.80;;
36283;SDS011;56085;48.910;9.478;2023-08-21T11:05:07;11.70;;;5.45;;
36283;SDS011;56085;48.910;9.478;2023-08-21T11:07:37;10.60;;;4.95;;
36283;SDS011;56085;48.910;9.478;2023-08-21T11:10:16;5.68;;;4.50;;
36283;SDS011;56085;48.910;9.478;2023-08-21T11:12:56;7.35;;;4.65;;
36283;SDS011;56085;48.910;9.478;2023-08-21T11:15:22;8.65;;;3.75;;
36283;SDS011;56085;48.910;9.478;2023-08-21T11:20:28;7.15;;;4.70;;
36283;SDS011;56085;48.910;9.478;2023-08-21T11:22:58;9.17;;;4.60;;
36283;SDS011;56085;48.910;9.478;2023-08-21T11:25:24;8.10;;;4.45;;
36283;SDS011;56085;48.910;9.478;2023-08-21T11:27:49;7.43;;;4.85;;
36283;SDS011;56085;48.910;9.478;2023-08-21T11:30:14;7.07;;;4.75;;
36283;SDS011;56085;48.910;9.478;2023-08-21T11:32:41;10.13;;;5.47;;
36283;SDS011;56085;48.910;9.478;2023-08-21T11:35:06;7.63;;;4.90;;
36283;SDS011;56085;48.910;9.478;2023-08-21T11:37:32;5.80;;;4.75;;
36283;SDS011;56085;48.910;9.478;2023-08-21T11:39:57;7.32;;;5.07;;
36283;SDS011;56085;48.910;9.478;2023-08-21T11:42:30;8.13;;;5.05;;
36283;SDS011;56085;48.910;9.478;2023-08-21T11:44:56;7.28;;;5.00;;
36283;SDS011;56085;48.910;9.478;2023-08-21T11:47:22;6.63;;;5.30;;
36283;SDS011;56085;48.910;9.478;2023-08-21T11:49:49;7.88;;;5.70;;
36283;SDS011;56085;48.910;9.478;2023-08-21T11:52:19;7.40;;;5.68;;
36283;SDS011;56085;48.910;9.478;2023-08-21T11:54:47;7.35;;;5.35;;
36283;SDS011;56085;48.910;9.478;2023-08-21T11:57:14;7.45;;;5.28;;
36283;SDS011;56085;48.910;9.478;2023-08-21T11:59:40;6.25;;;5.05;;
36283;SDS011;56085;48.910;9.478;2023-08-21T12:02:16;7.72;;;5.20;;
36283;SDS011;56085;48.910;9.478;2023-08-21T12:04:43;8.52;;;4.78;;
36283;SDS011;56085;48.910;9.478;2023-08-21T12:07:09;6.20;;;5.32;;
36283;SDS011;56085;48.910;9.478;2023-08-21T12:09:34;7.05;;;4.80;;
36283;SDS011;56085;48.910;9.478;2023-08-21T12:12:00;9.07;;;5.03;;
36283;SDS011;56085;48.910;9.478;2023-08-21T12:14:25;9.90;;;5.53;;
36283;SDS011;56085;48.910;9.478;2023-08-21T12:16:52;8.45;;;4.82;;
36283;SDS011;56085;48.910;9.478;2023-08-21T12:19:17;9.68;;;5.75;;
36283;SDS011;56085;48.910;9.478;2023-08-21T12:21:43;11.00;;;5.32;;
36283;SDS011;56085;48.910;9.478;2023-08-21T12:24:08;6.00;;;4.83;;
36283;SDS011;56085;48.910;9.478;2023-08-21T12:26:33;10.87;;;5.40;;
36283;SDS011;56085;48.910;9.478;2023-08-21T12:29:00;6.05;;;5.10;;
36283;SDS011;56085;48.910;9.478;2023-08-21T12:31:25;10.55;;;5.35;;
36283;SDS011;56085;48.910;9.478;2023-08-21T12:33:51;11.03;;;5.13;;
36283;SDS011;56085;48.910;9.478;2023-08-21T12:36:16;6.85;;;4.45;;
36283;SDS011;56085;48.910;9.478;2023-08-21T12:38:41;9.83;;;4.87;;
36283;SDS011;56085;48.910;9.478;2023-08-21T12:41:07;9.67;;;4.70;;
36283;SDS011;56085;48.910;9.478;2023-08-21T12:43:32;8.40;;;5.07;;
36283;SDS011;56085;48.910;9.478;2023-08-21T12:45:58;6.28;;;4.75;;
36283;SDS011;56085;48.910;9.478;2023-08-21T12:48:23;8.02;;;5.15;;
36283;SDS011;56085;48.910;9.478;2023-08-21T12:50:48;10.60;;;5.10;;
36283;SDS011;56085;48.910;9.478;2023-08-21T12:53:15;8.88;;;4.88;;
36283;SDS011;56085;48.910;9.478;2023-08-21T12:55:40;6.30;;;4.90;;
36283;SDS011;56085;48.910;9.478;2023-08-21T12:58:06;12.90;;;4.75;;
36283;SDS011;56085;48.910;9.478;2023-08-21T13:00:31;13.00;;;4.57;;
36283;SDS011;56085;48.910;9.478;2023-08-21T13:02:57;10.88;;;4.15;;
36283;SDS011;56085;48.910;9.478;2023-08-21T13:05:22;7.60;;;5.22;;
36283;SDS011;56085;48.910;9.478;2023-08-21T13:07:48;6.07;;;4.33;;
36283;SDS011;56085;48.910;9.478;2023-08-21T13:10:13;7.17;;;4.63;;
36283;SDS011;56085;48.910;9.478;2023-08-21T13:12:38;8.32;;;5.15;;
36283;SDS011;56085;48.910;9.478;2023-08-21T13:15:04;5.37;;;4.17;;
36283;SDS011;56085;48.910;9.478;2023-08-21T13:17:29;7.45;;;4.63;;
36283;SDS011;56085;48.910;9.478;2023-08-21T13:19:55;7.63;;;4.80;;
36283;SDS011;56085;48.910;9.478;2023-08-21T13:22:20;7.47;;;4.63;;
36283;SDS011;56085;48.910;9.478;2023-08-21T13:24:45;7.00;;;4.17;;
36283;SDS011;56085;48.910;9.478;2023-08-21T13:27:10;6.13;;;4.23;;
36283;SDS011;56085;48.910;9.478;2023-08-21T13:29:37;7.25;;;4.40;;
36283;SDS011;56085;48.910;9.478;2023-08-21T13:32:02;9.48;;;4.03;;
36283;SDS011;56085;48.910;9.478;2023-08-21T13:34:28;8.32;;;5.53;;
36283;SDS011;56085;48.910;9.478;2023-08-21T13:36:53;6.77;;;4.77;;
36283;SDS011;56085;48.910;9.478;2023-08-21T13:39:18;8.27;;;4.50;;
36283;SDS011;56085;48.910;9.478;2023-08-21T13:41:43;6.07;;;3.80;;
36283;SDS011;56085;48.910;9.478;2023-08-21T13:44:09;5.23;;;4.03;;
36283;SDS011;56085;48.910;9.478;2023-08-21T13:46:34;9.07;;;4.10;;
36283;SDS011;56085;48.910;9.478;2023-08-21T13:48:59;8.23;;;4.57;;
36283;SDS011;56085;48.910;9.478;2023-08-21T13:51:25;9.70;;;4.13;;
36283;SDS011;56085;48.910;9.478;2023-08-21T13:53:50;4.97;;;4.03;;
36283;SDS011;56085;48.910;9.478;2023-08-21T13:56:16;14.32;;;4.15;;
36283;SDS011;56085;48.910;9.478;2023-08-21T13:58:41;5.03;;;3.70;;
36283;SDS011;56085;48.910;9.478;2023-08-21T14:01:06;5.93;;;3.80;;
36283;SDS011;56085;48.910;9.478;2023-08-21T14:03:33;8.52;;;4.07;;
36283;SDS011;56085;48.910;9.478;2023-08-21T14:05:58;6.40;;;4.35;;
36283;SDS011;56085;48.910;9.478;2023-08-21T14:08:23;5.73;;;3.37;;
36283;SDS011;56085;48.910;9.478;2023-08-21T14:10:49;5.20;;;3.27;;
36283;SDS011;56085;48.910;9.478;2023-08-21T14:13:14;6.10;;;3.97;;
36283;SDS011;56085;48.910;9.478;2023-08-21T14:15:39;5.53;;;3.77;;
36283;SDS011;56085;48.910;9.478;2023-08-21T14:18:05;5.60;;;4.13;;
36283;SDS011;56085;48.910;9.478;2023-08-21T14:20:30;8.60;;;3.75;;
36283;SDS011;56085;48.910;9.478;2023-08-21T14:22:55;6.83;;;3.77;;
36283;SDS011;56085;48.910;9.478;2023-08-21T14:25:21;5.60;;;3.83;;
36283;SDS011;56085;48.910;9.478;2023-08-21T14:27:47;8.43;;;3.67;;
36283;SDS011;56085;48.910;9.478;2023-08-21T14:30:14;8.05;;;3.35;;
36283;SDS011;56085;48.910;9.478;2023-08-21T14:32:40;6.95;;;3.42;;
36283;SDS011;56085;48.910;9.478;2023-08-21T14:35:05;4.20;;;2.77;;
36283;SDS011;56085;48.910;9.478;2023-08-21T14:37:35;5.68;;;3.00;;
36283;SDS011;56085;48.910;9.478;2023-08-21T14:40:01;5.32;;;2.90;;
36283;SDS011;56085;48.910;9.478;2023-08-21T14:42:31;7.78;;;3.50;;
36283;SDS011;56085;48.910;9.478;2023-08-21T14:44:56;4.30;;;3.28;;
36283;SDS011;56085;48.910;9.478;2023-08-21T14:47:22;4.27;;;2.60;;